createdAt,value
2023-01-21T00:00:56.257Z,0.49
2023-01-21T00:03:30.053Z,0.48
2023-01-21T00:06:02.742Z,0.48
2023-01-21T00:08:37.325Z,0.45
2023-01-21T00:11:11.725Z,0.47
2023-01-21T00:13:46.066Z,0.49
2023-01-21T00:16:18.773Z,0.47
2023-01-21T00:18:51.833Z,0.45
2023-01-21T00:21:25.506Z,0.44
2023-01-21T00:23:58.643Z,0.46
2023-01-21T00:26:31.843Z,0.49
2023-01-21T00:29:05.346Z,0.49
2023-01-21T00:31:38.201Z,0.47
2023-01-21T00:34:12.160Z,0.46
2023-01-21T00:36:45.975Z,0.44
2023-01-21T00:39:19.338Z,0.47
2023-01-21T00:41:52.984Z,0.48
2023-01-21T00:44:26.036Z,0.47
2023-01-21T00:46:59.121Z,0.46
2023-01-21T00:49:31.790Z,0.44
2023-01-21T00:52:04.998Z,0.42
2023-01-21T00:54:37.650Z,0.44
2023-01-21T00:57:10.307Z,0.44
2023-01-21T00:59:43.057Z,0.46
2023-01-21T01:02:17.502Z,0.48
2023-01-21T01:04:50.396Z,0.47
2023-01-21T01:07:23.400Z,0.45
2023-01-21T01:09:56.201Z,0.40
2023-01-21T01:12:29.920Z,0.39
2023-01-21T01:15:03.068Z,0.41
2023-01-21T01:17:36.872Z,0.44
2023-01-21T01:20:13.060Z,0.44
2023-01-21T01:22:47.164Z,0.45
2023-01-21T01:25:20.961Z,0.44
2023-01-21T01:27:53.992Z,0.41
2023-01-21T01:30:26.824Z,0.40
2023-01-21T01:32:59.982Z,0.41
2023-01-21T01:35:34.222Z,0.41
2023-01-21T01:38:11.030Z,0.39
2023-01-21T01:40:45.530Z,0.40
2023-01-21T01:43:22.003Z,0.40
2023-01-21T01:45:56.943Z,0.43
2023-01-21T01:48:33.087Z,0.42
2023-01-21T01:51:07.766Z,0.40
2023-01-21T01:53:45.725Z,0.40
2023-01-21T01:56:19.173Z,0.41
2023-01-21T01:58:54.468Z,0.41
2023-01-21T02:01:28.443Z,0.40
2023-01-21T02:04:04.831Z,0.40
2023-01-21T02:06:38.966Z,0.39
2023-01-21T02:09:11.941Z,0.40
2023-01-21T02:11:46.392Z,0.39
2023-01-21T02:14:19.932Z,0.38
2023-01-21T02:17:09.281Z,0.38
2023-01-21T02:20:15.721Z,0.38
2023-01-21T02:23:00.144Z,0.36
2023-01-21T02:26:07.998Z,0.34
2023-01-21T02:29:00.138Z,0.32
2023-01-21T02:32:11.001Z,0.29
2023-01-21T02:34:50.158Z,0.28
2023-01-21T02:37:29.699Z,0.29
2023-01-21T02:40:17.023Z,0.33
2023-01-21T02:42:52.457Z,0.34
2023-01-21T02:45:31.597Z,0.37
2023-01-21T02:48:14.213Z,0.40
2023-01-21T02:50:51.303Z,0.39
2023-01-21T02:53:28.986Z,0.41
2023-01-21T02:56:07.386Z,0.43
2023-01-21T02:58:42.858Z,0.43
2023-01-21T03:01:26.202Z,0.45
2023-01-21T03:04:16.598Z,0.47
2023-01-21T03:07:01.470Z,0.48
2023-01-21T03:09:36.499Z,0.49
2023-01-21T03:12:27.260Z,0.49
2023-01-21T03:15:23.949Z,0.50
2023-01-21T03:18:02.449Z,0.52
2023-01-21T03:20:40.691Z,0.51
2023-01-21T03:23:18.073Z,0.54
2023-01-21T03:25:52.504Z,0.55
2023-01-21T03:28:31.270Z,0.57
2023-01-21T03:31:09.297Z,0.57
2023-01-21T03:33:50.827Z,0.58
2023-01-21T03:36:28.364Z,0.62
2023-01-21T03:39:04.232Z,0.64
2023-01-21T03:41:40.630Z,0.63
2023-01-21T03:44:13.737Z,0.64
2023-01-21T03:46:53.217Z,0.65
2023-01-21T03:49:33.004Z,0.67
2023-01-21T03:52:07.858Z,0.66
2023-01-21T03:54:41.603Z,0.66
2023-01-21T03:57:14.289Z,0.67
2023-01-21T03:59:47.575Z,0.69
2023-01-21T04:02:21.281Z,0.70
2023-01-21T04:04:55.601Z,0.70
2023-01-21T04:07:28.869Z,0.72
2023-01-21T04:10:02.287Z,0.73
2023-01-21T04:12:36.403Z,0.75
2023-01-21T04:15:11.569Z,0.78
2023-01-21T04:17:44.469Z,0.77
2023-01-21T04:20:17.833Z,0.76
2023-01-21T04:22:50.723Z,0.74
2023-01-21T04:25:24.207Z,0.73
2023-01-21T04:27:56.795Z,0.74
2023-01-21T04:30:29.446Z,0.74
2023-01-21T04:33:02.101Z,0.77
2023-01-21T04:35:35.803Z,0.78
2023-01-21T04:38:08.945Z,0.79
2023-01-21T04:40:43.177Z,0.79
2023-01-21T04:43:15.783Z,0.80
2023-01-21T04:45:50.257Z,0.79
2023-01-21T04:48:23.384Z,0.79
2023-01-21T04:50:57.221Z,0.79
2023-01-21T04:53:30.448Z,0.81
2023-01-21T04:56:03.286Z,0.82
2023-01-21T04:58:36.050Z,0.83
2023-01-21T05:01:09.035Z,0.86
2023-01-21T05:03:41.709Z,0.86
2023-01-21T05:06:15.505Z,0.84
2023-01-21T05:08:48.815Z,0.84
2023-01-21T05:11:22.768Z,0.85
2023-01-21T05:13:55.399Z,0.86
2023-01-21T05:16:28.728Z,0.88
2023-01-21T05:19:01.689Z,0.89
2023-01-21T05:21:35.321Z,0.90
2023-01-21T05:24:09.030Z,0.90
2023-01-21T05:26:42.078Z,0.92
2023-01-21T05:29:15.122Z,0.93
2023-01-21T05:31:48.223Z,0.92
2023-01-21T05:34:21.633Z,0.95
2023-01-21T05:36:54.497Z,0.97
2023-01-21T05:39:27.389Z,1.01
2023-01-21T05:42:00.943Z,1.01
2023-01-21T05:44:33.801Z,1.01
2023-01-21T05:47:07.679Z,1.03
2023-01-21T05:49:40.804Z,1.06
2023-01-21T05:52:13.593Z,1.07
2023-01-21T05:55:00.951Z,1.09
2023-01-21T05:57:35.762Z,1.09
2023-01-21T06:00:10.952Z,1.10
2023-01-21T06:02:43.795Z,1.13
2023-01-21T06:05:17.947Z,1.14
2023-01-21T06:07:51.678Z,1.17
2023-01-21T06:10:24.294Z,1.18
2023-01-21T06:12:57.590Z,1.19
2023-01-21T06:15:33.312Z,1.21
2023-01-21T06:18:06.029Z,1.21
2023-01-21T06:20:39.524Z,1.19
2023-01-21T06:23:14.402Z,1.14
2023-01-21T06:25:48.164Z,1.06
2023-01-21T06:28:21.403Z,1.02
2023-01-21T06:30:54.116Z,0.92
2023-01-21T06:33:26.907Z,0.82
2023-01-21T06:35:59.998Z,0.74
2023-01-21T06:38:36.081Z,0.68
2023-01-21T06:41:09.410Z,0.59
2023-01-21T06:43:43.144Z,0.55
2023-01-21T06:46:15.883Z,0.53
2023-01-21T06:48:48.814Z,0.51
2023-01-21T06:51:21.470Z,0.51
2023-01-21T06:53:54.953Z,0.48
2023-01-21T06:56:28.158Z,0.46
2023-01-21T06:59:01.835Z,0.43
2023-01-21T07:01:34.480Z,0.42
2023-01-21T07:04:08.453Z,0.41
2023-01-21T07:06:42.365Z,0.39
2023-01-21T07:09:15.430Z,0.38
2023-01-21T07:11:48.047Z,0.36
2023-01-21T07:14:21.528Z,0.34
2023-01-21T07:16:54.632Z,0.32
2023-01-21T07:19:28.102Z,0.28
2023-01-21T07:22:01.173Z,0.27
2023-01-21T07:24:34.392Z,0.27
2023-01-21T07:27:07.458Z,0.26
2023-01-21T07:29:40.778Z,0.25
2023-01-21T07:32:13.901Z,0.23
2023-01-21T07:34:48.192Z,0.19
2023-01-21T07:37:20.869Z,0.15
2023-01-21T07:39:55.973Z,0.10
2023-01-21T07:42:29.474Z,0.08
2023-01-21T07:45:04.041Z,0.09
2023-01-21T07:47:37.196Z,0.07
2023-01-21T07:50:13.550Z,0.06
2023-01-21T07:52:48.255Z,0.06
2023-01-21T07:55:21.551Z,0.03
2023-01-21T07:57:56.848Z,0.00
2023-01-21T08:00:30.405Z,-0.04
2023-01-21T08:03:05.410Z,-0.06
2023-01-21T08:05:39.839Z,-0.06
2023-01-21T08:08:14.538Z,-0.05
2023-01-21T08:10:54.813Z,-0.05
2023-01-21T08:13:28.793Z,-0.08
2023-01-21T08:16:03.235Z,-0.10
2023-01-21T08:18:36.915Z,-0.14
2023-01-21T08:21:10.611Z,-0.14
2023-01-21T08:23:43.624Z,-0.16
2023-01-21T08:26:18.114Z,-0.15
2023-01-21T08:28:51.260Z,-0.13
2023-01-21T08:31:24.728Z,-0.13
2023-01-21T08:33:59.614Z,-0.12
2023-01-21T08:36:33.726Z,-0.10
2023-01-21T08:39:07.801Z,-0.08
2023-01-21T08:41:42.029Z,-0.06
2023-01-21T08:44:16.470Z,-0.05
2023-01-21T08:46:49.863Z,-0.04
2023-01-21T08:49:24.253Z,-0.04
2023-01-21T08:51:58.003Z,-0.04
2023-01-21T08:54:34.665Z,-0.06
2023-01-21T08:57:09.934Z,-0.07
2023-01-21T08:59:45.524Z,-0.05
2023-01-21T09:02:21.324Z,-0.03
2023-01-21T09:04:55.626Z,-0.03
2023-01-21T09:07:31.809Z,-0.03
2023-01-21T09:10:06.724Z,-0.01
2023-01-21T09:12:45.786Z,-0.00
2023-01-21T09:15:20.686Z,-0.04
2023-01-21T09:17:54.642Z,-0.03
2023-01-21T09:20:30.334Z,-0.04
2023-01-21T09:23:24.408Z,-0.01
2023-01-21T09:26:04.269Z,0.01
2023-01-21T09:28:42.629Z,0.03
2023-01-21T09:31:18.857Z,0.05
2023-01-21T09:33:55.815Z,0.04
2023-01-21T09:36:35.683Z,0.06
2023-01-21T09:39:11.086Z,0.06
2023-01-21T09:41:48.041Z,0.07
2023-01-21T09:44:31.443Z,0.07
2023-01-21T09:47:11.220Z,0.08
2023-01-21T09:49:51.960Z,0.10
2023-01-21T09:52:33.615Z,0.09
2023-01-21T09:55:16.668Z,0.09
2023-01-21T09:58:25.412Z,0.10
2023-01-21T10:01:05.665Z,0.09
2023-01-21T10:03:47.140Z,0.11
2023-01-21T10:06:49.603Z,0.14
2023-01-21T10:09:49.254Z,0.15
2023-01-21T10:12:36.873Z,0.16
2023-01-21T10:15:39.993Z,0.15
2023-01-21T10:18:18.447Z,0.13
2023-01-21T10:20:58.972Z,0.16
2023-01-21T10:23:42.714Z,0.17
2023-01-21T10:26:18.638Z,0.17
2023-01-21T10:28:57.338Z,0.15
2023-01-21T10:31:37.575Z,0.11
2023-01-21T10:34:17.023Z,0.11
2023-01-21T10:37:08.677Z,0.09
2023-01-21T10:39:54.429Z,0.10
2023-01-21T10:43:03.460Z,0.14
2023-01-21T10:45:49.942Z,0.10
2023-01-21T10:48:34.037Z,0.09
2023-01-21T10:51:18.903Z,0.13
2023-01-21T10:54:01.398Z,0.13
2023-01-21T10:56:51.972Z,0.11
2023-01-21T10:59:32.226Z,0.11
2023-01-21T11:02:22.512Z,0.14
2023-01-21T11:04:58.326Z,0.19
2023-01-21T11:07:39.197Z,0.25
2023-01-21T11:10:20.475Z,0.28
2023-01-21T11:12:57.517Z,0.30
2023-01-21T11:15:37.039Z,0.30
2023-01-21T11:18:30.705Z,0.33
2023-01-21T11:21:18.392Z,0.36
2023-01-21T11:23:59.862Z,0.40
2023-01-21T11:26:38.979Z,0.41
2023-01-21T11:29:18.288Z,0.43
2023-01-21T11:32:01.864Z,0.44
2023-01-21T11:34:36.827Z,0.44
2023-01-21T11:37:20.068Z,0.38
2023-01-21T11:39:57.348Z,0.36
2023-01-21T11:42:30.782Z,0.37
2023-01-21T11:45:06.244Z,0.37
2023-01-21T11:47:48.745Z,0.37
2023-01-21T11:50:28.825Z,0.40
2023-01-21T11:53:17.510Z,0.42
2023-01-21T11:55:57.254Z,0.38
2023-01-21T11:58:33.576Z,0.38
2023-01-21T12:01:09.042Z,0.41
2023-01-21T12:03:49.737Z,0.45
2023-01-21T12:06:24.848Z,0.46
2023-01-21T12:09:02.194Z,0.45
2023-01-21T12:11:35.211Z,0.45
2023-01-21T12:14:19.030Z,0.44
2023-01-21T12:17:07.278Z,0.44
2023-01-21T12:19:53.755Z,0.43
2023-01-21T12:22:45.198Z,0.43
2023-01-21T12:25:26.171Z,0.46
2023-01-21T12:28:17.294Z,0.47
2023-01-21T12:31:00.293Z,0.46
2023-01-21T12:33:48.406Z,0.44
2023-01-21T12:36:28.534Z,0.45
2023-01-21T12:39:15.051Z,0.47
2023-01-21T12:41:53.093Z,0.47
2023-01-21T12:44:34.305Z,0.46
2023-01-21T12:47:12.421Z,0.50
2023-01-21T12:50:05.108Z,0.50
2023-01-21T12:52:46.362Z,0.52
2023-01-21T12:55:26.005Z,0.54
2023-01-21T12:58:04.333Z,0.57
2023-01-21T13:00:40.178Z,0.59
2023-01-21T13:03:26.394Z,0.59
2023-01-21T13:06:04.581Z,0.61
2023-01-21T13:09:00.628Z,0.61
2023-01-21T13:11:38.328Z,0.61
2023-01-21T13:14:29.934Z,0.63
2023-01-21T13:17:05.564Z,0.63
2023-01-21T13:19:38.647Z,0.63
2023-01-21T13:22:27.191Z,0.63
2023-01-21T13:25:09.861Z,0.63
2023-01-21T13:27:49.201Z,0.63
2023-01-21T13:30:30.763Z,0.65
2023-01-21T13:33:18.926Z,0.65
2023-01-21T13:35:58.397Z,0.64
2023-01-21T13:38:39.240Z,0.64
2023-01-21T13:41:26.507Z,0.65
2023-01-21T13:44:32.072Z,0.64
2023-01-21T13:47:17.310Z,0.64
2023-01-21T13:50:19.716Z,0.64
2023-01-21T13:53:35.461Z,0.63
2023-01-21T13:56:27.383Z,0.63
2023-01-21T13:59:04.890Z,0.64
2023-01-21T14:01:46.459Z,0.65
2023-01-21T14:04:27.671Z,0.65
2023-01-21T14:07:11.032Z,0.64
2023-01-21T14:09:51.688Z,0.64
2023-01-21T14:12:42.741Z,0.65
2023-01-21T14:15:31.093Z,0.62
2023-01-21T14:18:27.424Z,0.60
2023-01-21T14:21:26.184Z,0.61
2023-01-21T14:24:10.135Z,0.60
2023-01-21T14:26:59.953Z,0.62
2023-01-21T14:29:41.400Z,0.62
2023-01-21T14:32:23.582Z,0.61
2023-01-21T14:35:10.167Z,0.64
2023-01-21T14:37:51.993Z,0.64
2023-01-21T14:40:33.297Z,0.64
2023-01-21T14:43:21.224Z,0.64
2023-01-21T14:45:59.014Z,0.64
2023-01-21T14:48:37.883Z,0.64
2023-01-21T14:51:22.798Z,0.66
2023-01-21T14:54:04.374Z,0.66
2023-01-21T14:56:42.318Z,0.65
2023-01-21T14:59:35.421Z,0.66
2023-01-21T15:02:27.950Z,0.65
2023-01-21T15:05:06.976Z,0.65
2023-01-21T15:07:45.122Z,0.66
2023-01-21T15:10:28.804Z,0.68
2023-01-21T15:13:07.427Z,0.67
2023-01-21T15:16:09.096Z,0.65
2023-01-21T15:18:48.513Z,0.65
2023-01-21T15:21:44.736Z,0.67
2023-01-21T15:24:28.227Z,0.67
2023-01-21T15:27:17.073Z,0.70
2023-01-21T15:30:54.080Z,0.70
2023-01-21T15:33:33.592Z,0.68
2023-01-21T15:36:22.761Z,0.67
2023-01-21T15:39:05.318Z,0.65
2023-01-21T15:41:56.335Z,0.65
2023-01-21T15:44:51.366Z,0.64
2023-01-21T15:47:49.793Z,0.64
2023-01-21T15:50:31.690Z,0.63
2023-01-21T15:53:22.603Z,0.67
2023-01-21T15:56:22.262Z,0.68
2023-01-21T15:59:10.267Z,0.68
2023-01-21T16:01:45.507Z,0.67
2023-01-21T16:04:37.163Z,0.71
2023-01-21T16:07:23.218Z,0.72
2023-01-21T16:10:10.706Z,0.74
2023-01-21T16:12:56.259Z,0.75
2023-01-21T16:15:42.674Z,0.76
2023-01-21T16:18:29.961Z,0.76
2023-01-21T16:21:07.745Z,0.76
2023-01-21T16:23:45.506Z,0.76
2023-01-21T16:26:32.844Z,0.74
2023-01-21T16:29:15.214Z,0.75
2023-01-21T16:31:55.431Z,0.76
2023-01-21T16:34:45.009Z,0.78
2023-01-21T16:37:21.918Z,0.79
2023-01-21T16:40:20.491Z,0.80
2023-01-21T16:43:17.816Z,0.78
2023-01-21T16:45:57.103Z,0.77
2023-01-21T16:48:35.852Z,0.77
2023-01-21T16:51:18.492Z,0.81
2023-01-21T16:53:53.426Z,0.82
2023-01-21T16:56:31.567Z,0.81
2023-01-21T16:59:21.174Z,0.81
2023-01-21T17:01:57.943Z,0.82
2023-01-21T17:04:33.421Z,0.83
2023-01-21T17:07:09.768Z,0.82
2023-01-21T17:09:46.973Z,0.82
2023-01-21T17:12:28.324Z,0.81
2023-01-21T17:15:11.162Z,0.80
2023-01-21T17:17:48.473Z,0.81
2023-01-21T17:20:43.796Z,0.81
2023-01-21T17:23:23.906Z,0.81
2023-01-21T17:26:03.576Z,0.80
2023-01-21T17:28:47.770Z,0.82
2023-01-21T17:31:33.477Z,0.83
2023-01-21T17:34:24.253Z,0.81
2023-01-21T17:37:01.602Z,0.80
2023-01-21T17:40:02.592Z,0.80
2023-01-21T17:42:43.010Z,0.78
2023-01-21T17:45:28.122Z,0.78
2023-01-21T17:48:10.959Z,0.79
2023-01-21T17:50:51.247Z,0.80
2023-01-21T17:53:32.967Z,0.80
2023-01-21T17:56:09.651Z,0.79
2023-01-21T17:59:03.706Z,0.84
2023-01-21T18:01:40.293Z,0.85
2023-01-21T18:04:24.472Z,0.86
2023-01-21T18:07:01.518Z,0.87
2023-01-21T18:09:39.240Z,0.86
2023-01-21T18:12:15.264Z,0.87
2023-01-21T18:14:49.460Z,0.87
2023-01-21T18:17:26.313Z,0.88
2023-01-21T18:20:01.125Z,0.89
2023-01-21T18:22:38.519Z,0.90
2023-01-21T18:25:18.186Z,0.91
2023-01-21T18:27:56.100Z,0.92
2023-01-21T18:30:32.130Z,0.91
2023-01-21T18:33:08.449Z,0.90
2023-01-21T18:35:47.574Z,0.91
2023-01-21T18:38:33.562Z,0.94
2023-01-21T18:41:09.585Z,0.91
2023-01-21T18:43:45.294Z,0.94
2023-01-21T18:46:20.873Z,0.95
2023-01-21T18:48:56.489Z,0.95
2023-01-21T18:51:33.539Z,0.96
2023-01-21T18:54:11.315Z,0.95
2023-01-21T18:56:47.862Z,0.95
2023-01-21T18:59:23.563Z,0.96
2023-01-21T19:01:58.021Z,0.97
2023-01-21T19:04:33.000Z,0.95
2023-01-21T19:07:10.481Z,0.96
2023-01-21T19:09:48.079Z,0.98
2023-01-21T19:12:26.671Z,0.97
2023-01-21T19:15:02.688Z,0.98
2023-01-21T19:17:40.469Z,0.99
2023-01-21T19:20:28.171Z,0.96
2023-01-21T19:23:01.860Z,0.91
2023-01-21T19:25:41.951Z,0.91
2023-01-21T19:28:17.255Z,0.92
2023-01-21T19:30:55.852Z,0.92
2023-01-21T19:33:31.070Z,0.92
2023-01-21T19:36:15.508Z,0.91
2023-01-21T19:38:55.401Z,0.92
2023-01-21T19:41:34.518Z,0.93
2023-01-21T19:44:12.936Z,0.91
2023-01-21T19:46:48.175Z,0.91
2023-01-21T19:49:23.994Z,0.91
2023-01-21T19:51:58.796Z,0.92
2023-01-21T19:54:34.178Z,0.93
2023-01-21T19:57:11.678Z,0.92
2023-01-21T19:59:49.868Z,0.91
2023-01-21T20:02:29.208Z,0.90
2023-01-21T20:05:03.433Z,0.91
2023-01-21T20:07:40.289Z,0.91
2023-01-21T20:10:35.540Z,0.91
2023-01-21T20:13:13.495Z,0.89
2023-01-21T20:15:53.619Z,0.85
2023-01-21T20:18:29.985Z,0.84
2023-01-21T20:21:08.080Z,0.84
2023-01-21T20:23:41.360Z,0.82
2023-01-21T20:26:23.638Z,0.83
2023-01-21T20:29:01.730Z,0.84
2023-01-21T20:31:36.788Z,0.85
2023-01-21T20:34:14.442Z,0.87
2023-01-21T20:36:51.129Z,0.88
2023-01-21T20:39:25.831Z,0.85
2023-01-21T20:42:04.414Z,0.87
2023-01-21T20:44:41.017Z,0.87
2023-01-21T20:47:37.687Z,0.89
2023-01-21T20:50:22.482Z,0.88
2023-01-21T20:52:58.526Z,0.87
2023-01-21T20:55:33.096Z,0.87
2023-01-21T20:58:09.005Z,0.85
2023-01-21T21:00:46.765Z,0.83
2023-01-21T21:03:20.997Z,0.85
2023-01-21T21:05:57.708Z,0.84
2023-01-21T21:08:34.203Z,0.80
2023-01-21T21:11:09.907Z,0.80
2023-01-21T21:13:47.256Z,0.82
2023-01-21T21:16:43.062Z,0.79
2023-01-21T21:19:23.106Z,0.78
2023-01-21T21:21:59.020Z,0.74
2023-01-21T21:24:34.164Z,0.74
2023-01-21T21:27:12.078Z,0.77
2023-01-21T21:29:48.091Z,0.77
2023-01-21T21:32:22.834Z,0.78
2023-01-21T21:35:00.264Z,0.79
2023-01-21T21:37:35.611Z,0.80
2023-01-21T21:40:24.793Z,0.78
2023-01-21T21:43:17.788Z,0.77
2023-01-21T21:46:09.219Z,0.77
2023-01-21T21:48:45.728Z,0.74
2023-01-21T21:51:22.074Z,0.76
2023-01-21T21:53:58.083Z,0.78
2023-01-21T21:56:34.103Z,0.78
2023-01-21T21:59:10.504Z,0.77
2023-01-21T22:01:45.550Z,0.81
2023-01-21T22:04:21.340Z,0.82
2023-01-21T22:06:54.852Z,0.81
2023-01-21T22:09:31.733Z,0.82
2023-01-21T22:12:08.233Z,0.83
2023-01-21T22:14:43.960Z,0.83
2023-01-21T22:17:18.898Z,0.86
2023-01-21T22:19:52.723Z,0.87
2023-01-21T22:22:27.031Z,0.90
2023-01-21T22:25:00.540Z,0.92
2023-01-21T22:27:40.527Z,0.89
2023-01-21T22:30:25.814Z,0.83
2023-01-21T22:33:00.513Z,0.79
2023-01-21T22:35:35.932Z,0.78
2023-01-21T22:38:10.247Z,0.79
2023-01-21T22:40:47.634Z,0.78
2023-01-21T22:43:23.544Z,0.78
2023-01-21T22:46:02.307Z,0.81
2023-01-21T22:48:38.530Z,0.81
2023-01-21T22:51:17.604Z,0.82
2023-01-21T22:53:54.518Z,0.81
2023-01-21T22:56:50.340Z,0.81
2023-01-21T22:59:25.100Z,0.78
2023-01-21T23:02:04.010Z,0.80
2023-01-21T23:04:38.539Z,0.81
2023-01-21T23:07:16.298Z,0.82
2023-01-21T23:09:48.989Z,0.83
2023-01-21T23:12:23.429Z,0.83
2023-01-21T23:14:58.550Z,0.82
2023-01-21T23:17:34.860Z,0.82
2023-01-21T23:20:13.961Z,0.82
2023-01-21T23:22:48.511Z,0.84
2023-01-21T23:25:24.374Z,0.88
2023-01-21T23:27:58.292Z,0.89
2023-01-21T23:30:32.973Z,0.88
2023-01-21T23:33:07.095Z,0.89
2023-01-21T23:35:43.123Z,0.91
2023-01-21T23:38:17.220Z,0.91
2023-01-21T23:40:51.503Z,0.91
2023-01-21T23:43:28.333Z,0.89
2023-01-21T23:46:02.697Z,0.91
2023-01-21T23:48:37.921Z,0.93
2023-01-21T23:51:14.799Z,0.94
2023-01-21T23:53:50.852Z,0.95
2023-01-21T23:56:26.229Z,0.97
2023-01-21T23:59:00.477Z,0.93
